Soddy Daisy, TN (37379)

3:57 PM EDT on April 19, 2015 (GMT -0400)
Shady Grove | | Change Station
CLOSE
Current Station
Personal Weather Station
Location: Soddy-Daisy, TN
Elevation: 797 ft
Nearby Weather Stations
Active Advisory: Flood Warning

Elev 797 ft 35.26 °N, 85.12 °W | Updated 5 seconds ago

Mostly Cloudy
Mostly Cloudy
71.5 °F
Feels Like 71.5 °F
N
1.0
Wind Variable Wind from NNW
Gusts 6.0 mph

Today
High -- | Low -- °F
--% Chance of Precip.
Yesterday
High -- | Low -- °F
Precip. -- in
7:03 AM 8:16 PM
New Moon, 2% visible
Pressure 29.69 in
Visibility 10.0 miles
Clouds Scattered Clouds 2000 ft
Scattered Clouds 2800 ft
Mostly Cloudy 3400 ft
Mostly Cloudy 13000 ft
Dew Point 67 °F
Humidity 87%
Rainfall 1.84 in
Snow Depth Not available.
UV 5 out of 12
Pollen 2.40 out of 12
Air Quality Not available.
Flu Activity Sporadic
METAR KCHA 191853Z 20016G20KT 10SM SCT020 SCT028 BKN034 BKN130 22/17 A2971 RMK AO2 SLP052 T02220172

More Conditions Fewer Conditions

Pressure 29.69 in
Visibility 10.0 miles
Clouds Scattered Clouds 2000 ft
Scattered Clouds 2800 ft
Mostly Cloudy 3400 ft
Mostly Cloudy 13000 ft
Dew Point 67 °F
Humidity 87%
Rainfall 1.84 in
Snow Depth Not available.
UV 5 out of 12
Pollen 2.40 out of 12
Air Quality Not available.
Flu Activity Sporadic
METAR KCHA 191853Z 20016G20KT 10SM SCT020 SCT028 BKN034 BKN130 22/17 A2971 RMK AO2 SLP052 T02220172

More Conditions Fewer Conditions

10-Day Weather Forecast

Almanac

Astronomy

Apr. 19, 2015 Rise Set
Actual Time
Civil Twilight
Nautical Twilight
Astronomical Twilight
Moon
Length of Visible Light
Length of Day
Tomorrow will be .
, % of the Moon is Illuminated

Today's Extremes

State Highs State Lows

Community

WunderPhotos

Upload Photos

1,814,950 photos uploaded!

WunderBlogs® & News

Nearby

Air Quality

  Air Quality AQ Index Pollutant
Not available.

Snow Depth

Station Depth Elevation

Earthquake Activity

City Distance Mag. Time & Date
Minimum magnitude displayed is 2.5.

Coastal Water Temperatures

Place Temperature

Stations

Nearby Weather Stations

Station Location Temp. Windchill Dew Point Humidity Wind Precip. Elev Updated Type
                   
Flood Warning
Statement as of 12:16 PM EDT on April 19, 2015

... Flood Warning extended until late tonight for
the lookout creek near New England.
* Until late tonight.
* At 12 PM Sunday the stage was 12.6 feet... and rising.
* Minor flooding will continue.
* Flood stage is 12 feet.
* The creek will continue rising to near 13 feet by this afternoon.
The creek will fall below flood stage tonight.
* At 13 feet... minor flooding expands along Sells Lane in
Trenton... Mason Road near Rising Fawn... and Creek Road near New
England. All these roads will be closed. Also minor flooding
expands much further downstream as the creek crosses the Tennessee
border into the tiftona area.


Lat... Lon 3503 8539 3502 8533 3484 8545 3471 8549
      3473 8556 3487 8553